sensor_id;sensor_type;location;lat;lon;timestamp;pressure;altitude;pressure_sealevel;temperature;humidity
65754;BME280;69207;47.502;18.940;2023-08-24T00:00:47;98227.78;;;21.30;100.00
65754;BME280;69207;47.502;18.940;2023-08-24T00:01:50;98225.06;;;21.32;100.00
65754;BME280;69207;47.502;18.940;2023-08-24T00:02:53;98225.75;;;21.33;100.00
65754;BME280;69207;47.502;18.940;2023-08-24T00:03:56;98232.16;;;21.38;100.00
65754;BME280;69207;47.502;18.940;2023-08-24T00:04:59;98229.44;;;21.40;100.00
65754;BME280;69207;47.502;18.940;2023-08-24T00:06:03;98228.06;;;21.41;100.00
65754;BME280;69207;47.502;18.940;2023-08-24T00:07:06;98231.66;;;21.43;100.00
65754;BME280;69207;47.502;18.940;2023-08-24T00:08:11;98231.09;;;21.49;100.00
65754;BME280;69207;47.502;18.940;2023-08-24T00:09:14;98232.03;;;21.57;100.00
65754;BME280;69207;47.502;18.940;2023-08-24T00:10:18;98227.13;;;21.58;100.00
65754;BME280;69207;47.502;18.940;2023-08-24T00:11:21;98228.62;;;21.61;100.00
65754;BME280;69207;47.502;18.940;2023-08-24T00:12:24;98225.75;;;21.59;100.00
65754;BME280;69207;47.502;18.940;2023-08-24T00:13:28;98223.03;;;21.61;100.00
65754;BME280;69207;47.502;18.940;2023-08-24T00:14:31;98223.03;;;21.61;100.00
65754;BME280;69207;47.502;18.940;2023-08-24T00:15:35;98222.41;;;21.65;100.00
65754;BME280;69207;47.502;18.940;2023-08-24T00:16:38;98214.69;;;21.63;100.00
65754;BME280;69207;47.502;18.940;2023-08-24T00:17:41;98221.72;;;21.64;100.00
65754;BME280;69207;47.502;18.940;2023-08-24T00:18:45;98216.13;;;21.64;100.00
65754;BME280;69207;47.502;18.940;2023-08-24T00:19:48;98218.31;;;21.68;100.00
65754;BME280;69207;47.502;18.940;2023-08-24T00:20:51;98222.50;;;21.67;100.00
65754;BME280;69207;47.502;18.940;2023-08-24T00:21:54;98220.41;;;21.67;100.00
65754;BME280;69207;47.502;18.940;2023-08-24T00:22:58;98222.50;;;21.67;100.00
65754;BME280;69207;47.502;18.940;2023-08-24T00:24:01;98228.13;;;21.69;100.00
65754;BME280;69207;47.502;18.940;2023-08-24T00:25:06;98228.84;;;21.69;100.00
65754;BME280;69207;47.502;18.940;2023-08-24T00:26:09;98233.13;;;21.72;100.00
65754;BME280;69207;47.502;18.940;2023-08-24T00:27:12;98240.84;;;21.74;100.00
65754;BME280;69207;47.502;18.940;2023-08-24T00:28:16;98226.19;;;21.75;100.00
65754;BME280;69207;47.502;18.940;2023-08-24T00:29:19;98231.09;;;21.75;100.00
65754;BME280;69207;47.502;18.940;2023-08-24T00:30:24;98231.16;;;21.77;100.00
65754;BME280;69207;47.502;18.940;2023-08-24T00:31:27;98228.44;;;21.81;100.00
65754;BME280;69207;47.502;18.940;2023-08-24T00:32:30;98229.88;;;21.82;100.00
65754;BME280;69207;47.502;18.940;2023-08-24T00:33:37;98229.16;;;21.81;100.00
65754;BME280;69207;47.502;18.940;2023-08-24T00:34:40;98230.50;;;21.78;100.00
65754;BME280;69207;47.502;18.940;2023-08-24T00:35:43;98223.47;;;21.77;100.00
65754;BME280;69207;47.502;18.940;2023-08-24T00:36:46;98230.41;;;21.76;100.00
65754;BME280;69207;47.502;18.940;2023-08-24T00:37:49;98222.75;;;21.77;100.00
65754;BME280;69207;47.502;18.940;2023-08-24T00:38:53;98226.91;;;21.76;100.00
65754;BME280;69207;47.502;18.940;2023-08-24T00:39:59;98233.13;;;21.72;100.00
65754;BME280;69207;47.502;18.940;2023-08-24T00:41:03;98227.63;;;21.76;100.00
65754;BME280;69207;47.502;18.940;2023-08-24T00:42:06;98229.06;;;21.77;100.00
65754;BME280;69207;47.502;18.940;2023-08-24T00:43:09;98229.78;;;21.78;100.00
65754;BME280;69207;47.502;18.940;2023-08-24T00:44:13;98231.09;;;21.75;100.00
65754;BME280;69207;47.502;18.940;2023-08-24T00:45:15;98235.22;;;21.72;100.00
65754;BME280;69207;47.502;18.940;2023-08-24T00:46:18;98233.13;;;21.72;100.00
65754;BME280;69207;47.502;18.940;2023-08-24T00:47:22;98235.22;;;21.72;100.00
65754;BME280;69207;47.502;18.940;2023-08-24T00:48:25;98230.25;;;21.70;100.00
65754;BME280;69207;47.502;18.940;2023-08-24T00:49:31;98234.44;;;21.69;100.00
65754;BME280;69207;47.502;18.940;2023-08-24T00:50:34;98239.97;;;21.67;100.00
65754;BME280;69207;47.502;18.940;2023-08-24T00:51:37;98231.47;;;21.63;100.00
65754;BME280;69207;47.502;18.940;2023-08-24T00:52:42;98235.66;;;21.62;100.00
65754;BME280;69207;47.502;18.940;2023-08-24T00:53:45;98239.81;;;21.61;100.00
65754;BME280;69207;47.502;18.940;2023-08-24T00:54:48;98246.72;;;21.58;100.00
65754;BME280;69207;47.502;18.940;2023-08-24T00:55:52;98241.81;;;21.58;100.00
65754;BME280;69207;47.502;18.940;2023-08-24T00:56:55;98240.34;;;21.55;100.00
65754;BME280;69207;47.502;18.940;2023-08-24T00:57:59;98240.25;;;21.51;100.00
65754;BME280;69207;47.502;18.940;2023-08-24T00:59:02;98241.63;;;21.50;100.00
65754;BME280;69207;47.502;18.940;2023-08-24T01:00:06;98250.66;;;21.49;100.00
65754;BME280;69207;47.502;18.940;2023-08-24T01:01:13;98248.56;;;21.49;100.00
65754;BME280;69207;47.502;18.940;2023-08-24T01:02:15;98244.97;;;21.45;100.00
65754;BME280;69207;47.502;18.940;2023-08-24T01:03:21;98246.22;;;21.40;100.00
65754;BME280;69207;47.502;18.940;2023-08-24T01:04:24;98251.78;;;21.40;100.00
65754;BME280;69207;47.502;18.940;2023-08-24T01:05:28;98250.25;;;21.34;100.00
65754;BME280;69207;47.502;18.940;2023-08-24T01:06:31;98250.91;;;21.33;100.00
65754;BME280;69207;47.502;18.940;2023-08-24T01:07:35;98247.59;;;21.39;100.00
65754;BME280;69207;47.502;18.940;2023-08-24T01:08:40;98239.03;;;21.32;100.00
65754;BME280;69207;47.502;18.940;2023-08-24T01:09:43;98240.19;;;21.25;100.00
65754;BME280;69207;47.502;18.940;2023-08-24T01:10:59;98238.09;;;21.26;100.00
65754;BME280;69207;47.502;18.940;2023-08-24T01:15:13;98241.19;;;21.12;100.00
65754;BME280;69207;47.502;18.940;2023-08-24T01:16:25;98240.31;;;21.05;100.00
65754;BME280;69207;47.502;18.940;2023-08-24T01:17:31;98242.31;;;21.03;100.00
65754;BME280;69207;47.502;18.940;2023-08-24T01:18:35;98239.47;;;21.01;100.00
65754;BME280;69207;47.502;18.940;2023-08-24T01:19:43;98247.06;;;20.98;100.00
65754;BME280;69207;47.502;18.940;2023-08-24T01:20:47;98243.38;;;20.92;100.00
65754;BME280;69207;47.502;18.940;2023-08-24T01:21:54;98242.66;;;20.91;100.00
65754;BME280;69207;47.502;18.940;2023-08-24T01:23:36;98243.38;;;20.92;100.00
65754;BME280;69207;47.502;18.940;2023-08-24T01:24:46;98248.19;;;20.89;100.00
65754;BME280;69207;47.502;18.940;2023-08-24T01:25:58;98244.09;;;20.92;100.00
65754;BME280;69207;47.502;18.940;2023-08-24T01:27:02;98242.00;;;20.93;100.00
65754;BME280;69207;47.502;18.940;2023-08-24T01:28:06;98233.59;;;20.91;100.00
65754;BME280;69207;47.502;18.940;2023-08-24T01:29:11;98241.84;;;20.87;100.00
65754;BME280;69207;47.502;18.940;2023-08-24T01:30:15;98239.66;;;20.83;100.00
65754;BME280;69207;47.502;18.940;2023-08-24T01:31:18;98238.84;;;20.80;100.00
65754;BME280;69207;47.502;18.940;2023-08-24T01:32:21;98241.59;;;20.78;100.00
65754;BME280;69207;47.502;18.940;2023-08-24T01:33:25;98240.19;;;20.77;100.00
65754;BME280;69207;47.502;18.940;2023-08-24T01:34:28;98240.09;;;20.75;100.00
65754;BME280;69207;47.502;18.940;2023-08-24T01:35:31;98233.09;;;20.74;100.00
65754;BME280;69207;47.502;18.940;2023-08-24T01:36:35;98241.41;;;20.72;100.00
65754;BME280;69207;47.502;18.940;2023-08-24T01:37:38;98233.66;;;20.71;100.00
65754;BME280;69207;47.502;18.940;2023-08-24T01:38:43;98230.78;;;20.67;100.00
65754;BME280;69207;47.502;18.940;2023-08-24T01:40:05;98232.78;;;20.64;100.00
65754;BME280;69207;47.502;18.940;2023-08-24T01:41:22;98234.84;;;20.64;100.00
65754;BME280;69207;47.502;18.940;2023-08-24T01:42:29;98231.28;;;20.61;100.00
65754;BME280;69207;47.502;18.940;2023-08-24T01:43:35;98242.47;;;20.61;100.00
65754;BME280;69207;47.502;18.940;2023-08-24T01:44:42;98234.72;;;20.60;100.00
65754;BME280;69207;47.502;18.940;2023-08-24T01:45:46;98238.16;;;20.58;100.00
65754;BME280;69207;47.502;18.940;2023-08-24T01:46:51;98240.97;;;20.58;100.00
65754;BME280;69207;47.502;18.940;2023-08-24T01:47:56;98231.22;;;20.59;100.00
65754;BME280;69207;47.502;18.940;2023-08-24T01:49:00;98237.47;;;20.58;100.00
65754;BME280;69207;47.502;18.940;2023-08-24T01:50:06;98234.66;;;20.58;100.00
65754;BME280;69207;47.502;18.940;2023-08-24T01:51:10;98238.25;;;20.60;100.00
65754;BME280;69207;47.502;18.940;2023-08-24T01:52:13;98241.09;;;20.62;100.00
65754;BME280;69207;47.502;18.940;2023-08-24T01:53:17;98231.34;;;20.63;100.00
65754;BME280;69207;47.502;18.940;2023-08-24T01:54:20;98242.56;;;20.65;100.00
65754;BME280;69207;47.502;18.940;2023-08-24T01:55:23;98232.84;;;20.66;100.00
65754;BME280;69207;47.502;18.940;2023-08-24T01:56:26;98235.69;;;20.68;100.00
65754;BME280;69207;47.502;18.940;2023-08-24T01:57:30;98239.25;;;20.71;100.00
65754;BME280;69207;47.502;18.940;2023-08-24T01:58:33;98231.63;;;20.71;100.00
65754;BME280;69207;47.502;18.940;2023-08-24T01:59:36;98230.88;;;20.71;100.00
65754;BME280;69207;47.502;18.940;2023-08-24T02:00:39;98232.91;;;20.68;100.00
65754;BME280;69207;47.502;18.940;2023-08-24T02:01:42;98241.28;;;20.68;100.00
65754;BME280;69207;47.502;18.940;2023-08-24T02:02:45;98231.53;;;20.69;100.00
65754;BME280;69207;47.502;18.940;2023-08-24T02:03:48;98231.63;;;20.71;100.00
65754;BME280;69207;47.502;18.940;2023-08-24T02:04:51;98226.78;;;20.74;100.00
65754;BME280;69207;47.502;18.940;2023-08-24T02:05:54;98237.31;;;20.75;100.00
65754;BME280;69207;47.502;18.940;2023-08-24T02:06:57;98228.22;;;20.75;100.00
65754;BME280;69207;47.502;18.940;2023-08-24T02:08:00;98234.59;;;20.77;100.00
65754;BME280;69207;47.502;18.940;2023-08-24T02:09:04;98240.81;;;20.76;100.00
65754;BME280;69207;47.502;18.940;2023-08-24T02:10:07;98239.47;;;20.77;100.00
65754;BME280;69207;47.502;18.940;2023-08-24T02:11:10;98232.50;;;20.78;100.00
65754;BME280;69207;47.502;18.940;2023-08-24T02:12:13;98226.41;;;20.83;100.00
65754;BME280;69207;47.502;18.940;2023-08-24T02:13:16;98236.19;;;20.85;100.00
65754;BME280;69207;47.502;18.940;2023-08-24T02:14:19;98225.69;;;20.83;100.00
65754;BME280;69207;47.502;18.940;2023-08-24T02:15:22;98230.56;;;20.82;100.00
65754;BME280;69207;47.502;18.940;2023-08-24T02:16:25;98229.19;;;20.83;100.00
65754;BME280;69207;47.502;18.940;2023-08-24T02:17:28;98228.47;;;20.83;100.00
65754;BME280;69207;47.502;18.940;2023-08-24T02:18:32;98225.75;;;20.85;100.00
65754;BME280;69207;47.502;18.940;2023-08-24T02:19:35;98225.06;;;20.87;100.00
65754;BME280;69207;47.502;18.940;2023-08-24T02:20:38;98227.09;;;20.84;100.00
65754;BME280;69207;47.502;18.940;2023-08-24T02:21:41;98225.03;;;20.85;100.00
65754;BME280;69207;47.502;18.940;2023-08-24T02:22:44;98225.06;;;20.87;100.00
65754;BME280;69207;47.502;18.940;2023-08-24T02:23:47;98228.56;;;20.87;100.00
65754;BME280;69207;47.502;18.940;2023-08-24T02:24:50;98231.38;;;20.87;100.00
65754;BME280;69207;47.502;18.940;2023-08-24T02:25:53;98227.25;;;20.88;100.00
65754;BME280;69207;47.502;18.940;2023-08-24T02:26:59;98229.31;;;20.88;100.00
65754;BME280;69207;47.502;18.940;2023-08-24T02:28:02;98228.66;;;20.89;100.00
65754;BME280;69207;47.502;18.940;2023-08-24T02:29:05;98227.28;;;20.90;100.00
65754;BME280;69207;47.502;18.940;2023-08-24T02:30:09;98228.78;;;20.93;100.00
65754;BME280;69207;47.502;18.940;2023-08-24T02:31:12;98224.66;;;20.96;100.00
65754;BME280;69207;47.502;18.940;2023-08-24T02:32:15;98220.47;;;20.95;100.00
65754;BME280;69207;47.502;18.940;2023-08-24T02:33:18;98216.87;;;20.93;100.00
65754;BME280;69207;47.502;18.940;2023-08-24T02:34:21;98225.19;;;20.91;100.00
65754;BME280;69207;47.502;18.940;2023-08-24T02:35:24;98221.66;;;20.88;100.00
65754;BME280;69207;47.502;18.940;2023-08-24T02:36:27;98222.22;;;20.85;100.00
65754;BME280;69207;47.502;18.940;2023-08-24T02:37:31;98223.59;;;20.83;100.00
65754;BME280;69207;47.502;18.940;2023-08-24T02:38:34;98222.81;;;20.81;100.00
65754;BME280;69207;47.502;18.940;2023-08-24T02:39:37;98224.97;;;20.82;100.00
65754;BME280;69207;47.502;18.940;2023-08-24T02:40:40;98220.09;;;20.83;100.00
65754;BME280;69207;47.502;18.940;2023-08-24T02:41:43;98222.09;;;20.80;100.00
65754;BME280;69207;47.502;18.940;2023-08-24T02:42:46;98223.47;;;20.79;100.00
65754;BME280;69207;47.502;18.940;2023-08-24T02:43:49;98216.47;;;20.78;100.00
65754;BME280;69207;47.502;18.940;2023-08-24T02:44:52;98219.91;;;20.77;100.00
65754;BME280;69207;47.502;18.940;2023-08-24T02:46:02;98226.13;;;20.75;100.00
65754;BME280;69207;47.502;18.940;2023-08-24T02:47:06;98219.84;;;20.75;100.00
65754;BME280;69207;47.502;18.940;2023-08-24T02:48:09;98219.84;;;20.75;100.00
65754;BME280;69207;47.502;18.940;2023-08-24T02:49:13;98222.72;;;20.77;100.00
65754;BME280;69207;47.502;18.940;2023-08-24T02:50:16;98228.22;;;20.75;100.00
65754;BME280;69207;47.502;18.940;2023-08-24T02:51:21;98231.72;;;20.75;100.00
65754;BME280;69207;47.502;18.940;2023-08-24T02:52:24;98226.13;;;20.75;100.00
65754;BME280;69207;47.502;18.940;2023-08-24T02:53:27;98226.84;;;20.76;100.00
65754;BME280;69207;47.502;18.940;2023-08-24T02:54:30;98234.50;;;20.75;100.00
65754;BME280;69207;47.502;18.940;2023-08-24T02:55:33;98229.59;;;20.74;100.00
65754;BME280;69207;47.502;18.940;2023-08-24T02:56:37;98228.88;;;20.73;100.00
65754;BME280;69207;47.502;18.940;2023-08-24T02:57:40;98225.37;;;20.73;100.00
65754;BME280;69207;47.502;18.940;2023-08-24T02:58:43;98232.31;;;20.72;100.00
65754;BME280;69207;47.502;18.940;2023-08-24T02:59:46;98225.28;;;20.71;100.00
65754;BME280;69207;47.502;18.940;2023-08-24T03:00:49;98231.63;;;20.71;100.00
65754;BME280;69207;47.502;18.940;2023-08-24T03:01:52;98235.03;;;20.70;100.00
65754;BME280;69207;47.502;18.940;2023-08-24T03:02:56;98226.56;;;20.66;100.00
65754;BME280;69207;47.502;18.940;2023-08-24T03:03:59;98232.19;;;20.68;100.00
65754;BME280;69207;47.502;18.940;2023-08-24T03:05:02;98228.03;;;20.69;100.00
65754;BME280;69207;47.502;18.940;2023-08-24T03:06:07;98228.69;;;20.67;100.00
65754;BME280;69207;47.502;18.940;2023-08-24T03:07:10;98231.47;;;20.67;100.00
65754;BME280;69207;47.502;18.940;2023-08-24T03:08:13;98225.91;;;20.67;100.00
65754;BME280;69207;47.502;18.940;2023-08-24T03:09:16;98229.97;;;20.64;100.00
65754;BME280;69207;47.502;18.940;2023-08-24T03:10:19;98223.69;;;20.64;100.00
65754;BME280;69207;47.502;18.940;2023-08-24T03:11:22;98227.78;;;20.61;100.00
65754;BME280;69207;47.502;18.940;2023-08-24T03:12:26;98225.59;;;20.57;100.00
65754;BME280;69207;47.502;18.940;2023-08-24T03:13:29;98224.75;;;20.52;100.00
65754;BME280;69207;47.502;18.940;2023-08-24T03:14:33;98222.53;;;20.49;100.00
65754;BME280;69207;47.502;18.940;2023-08-24T03:15:35;98221.75;;;20.46;100.00
65754;BME280;69207;47.502;18.940;2023-08-24T03:16:41;98224.47;;;20.44;100.00
65754;BME280;69207;47.502;18.940;2023-08-24T03:17:44;98222.38;;;20.45;100.00
65754;BME280;69207;47.502;18.940;2023-08-24T03:18:47;98221.03;;;20.46;100.00
65754;BME280;69207;47.502;18.940;2023-08-24T03:19:50;98216.81;;;20.45;100.00
65754;BME280;69207;47.502;18.940;2023-08-24T03:20:53;98221.59;;;20.42;100.00
65754;BME280;69207;47.502;18.940;2023-08-24T03:21:56;98225.84;;;20.43;100.00
65754;BME280;69207;47.502;18.940;2023-08-24T03:22:59;98222.25;;;20.41;100.00
65754;BME280;69207;47.502;18.940;2023-08-24T03:24:02;98223.56;;;20.38;100.00
65754;BME280;69207;47.502;18.940;2023-08-24T03:25:07;98219.97;;;20.35;100.00
65754;BME280;69207;47.502;18.940;2023-08-24T03:26:10;98225.50;;;20.33;100.00
65754;BME280;69207;47.502;18.940;2023-08-24T03:27:13;98226.84;;;20.32;100.00
65754;BME280;69207;47.502;18.940;2023-08-24T03:28:16;98227.50;;;20.30;100.00
65754;BME280;69207;47.502;18.940;2023-08-24T03:29:19;98219.06;;;20.28;100.00
65754;BME280;69207;47.502;18.940;2023-08-24T03:30:22;98228.09;;;20.27;100.00
65754;BME280;69207;47.502;18.940;2023-08-24T03:31:25;98229.44;;;20.26;100.00
65754;BME280;69207;47.502;18.940;2023-08-24T03:32:28;98231.53;;;20.25;100.00
65754;BME280;69207;47.502;18.940;2023-08-24T03:33:32;98231.47;;;20.23;100.00
65754;BME280;69207;47.502;18.940;2023-08-24T03:34:36;98228.66;;;20.23;100.00
65754;BME280;69207;47.502;18.940;2023-08-24T03:35:39;98229.31;;;20.22;100.00
65754;BME280;69207;47.502;18.940;2023-08-24T03:36:42;98228.62;;;20.21;100.00
65754;BME280;69207;47.502;18.940;2023-08-24T03:37:45;98229.31;;;20.22;100.00
65754;BME280;69207;47.502;18.940;2023-08-24T03:38:49;98226.53;;;20.22;100.00
65754;BME280;69207;47.502;18.940;2023-08-24T03:39:51;98231.97;;;20.18;100.00
65754;BME280;69207;47.502;18.940;2023-08-24T03:41:02;98232.63;;;20.16;100.00
65754;BME280;69207;47.502;18.940;2023-08-24T03:42:06;98234.06;;;20.17;100.00
65754;BME280;69207;47.502;18.940;2023-08-24T03:43:09;98232.53;;;20.14;100.00
65754;BME280;69207;47.502;18.940;2023-08-24T03:44:12;98237.28;;;20.10;100.00
65754;BME280;69207;47.502;18.940;2023-08-24T03:45:15;98235.78;;;20.07;100.00
65754;BME280;69207;47.502;18.940;2023-08-24T03:46:18;98233.00;;;20.07;100.00
65754;BME280;69207;47.502;18.940;2023-08-24T03:47:21;98235.78;;;20.07;100.00
65754;BME280;69207;47.502;18.940;2023-08-24T03:48:24;98241.44;;;20.09;100.00
65754;BME280;69207;47.502;18.940;2023-08-24T03:49:27;98239.34;;;20.09;100.00
65754;BME280;69207;47.502;18.940;2023-08-24T03:50:30;98244.09;;;20.04;100.00
65754;BME280;69207;47.502;18.940;2023-08-24T03:51:33;98237.66;;;20.00;100.00
65754;BME280;69207;47.502;18.940;2023-08-24T03:52:36;98243.88;;;19.98;100.00
65754;BME280;69207;47.502;18.940;2023-08-24T03:53:39;98234.69;;;19.94;100.00
65754;BME280;69207;47.502;18.940;2023-08-24T03:54:42;98240.81;;;19.90;100.00
65754;BME280;69207;47.502;18.940;2023-08-24T03:55:48;98233.09;;;19.89;100.00
65754;BME280;69207;47.502;18.940;2023-08-24T03:56:52;98232.97;;;19.85;100.00
65754;BME280;69207;47.502;18.940;2023-08-24T03:57:55;98237.75;;;19.82;100.00
65754;BME280;69207;47.502;18.940;2023-08-24T03:58:58;98235.69;;;19.83;100.00
65754;BME280;69207;47.502;18.940;2023-08-24T04:00:01;98235.69;;;19.83;100.00
65754;BME280;69207;47.502;18.940;2023-08-24T04:01:10;98232.09;;;19.80;100.00
65754;BME280;69207;47.502;18.940;2023-08-24T04:02:13;98237.12;;;19.84;100.00
65754;BME280;69207;47.502;18.940;2023-08-24T04:03:16;98233.16;;;19.91;100.00
65754;BME280;69207;47.502;18.940;2023-08-24T04:04:20;98233.81;;;19.89;100.00
65754;BME280;69207;47.502;18.940;2023-08-24T04:05:23;98240.63;;;19.84;100.00
65754;BME280;69207;47.502;18.940;2023-08-24T04:06:26;98246.09;;;19.82;100.00
65754;BME280;69207;47.502;18.940;2023-08-24T04:07:29;98239.75;;;19.80;100.00
65754;BME280;69207;47.502;18.940;2023-08-24T04:08:32;98234.84;;;19.78;100.00
65754;BME280;69207;47.502;18.940;2023-08-24T04:09:35;98239.69;;;19.77;100.00
65754;BME280;69207;47.502;18.940;2023-08-24T04:10:38;98235.69;;;19.83;100.00
65754;BME280;69207;47.502;18.940;2023-08-24T04:11:41;98232.81;;;19.81;100.00
65754;BME280;69207;47.502;18.940;2023-08-24T04:12:44;98227.91;;;19.79;100.00
65754;BME280;69207;47.502;18.940;2023-08-24T04:13:47;98234.75;;;19.76;100.00
65754;BME280;69207;47.502;18.940;2023-08-24T04:14:50;98235.41;;;19.74;100.00
65754;BME280;69207;47.502;18.940;2023-08-24T04:15:55;98231.19;;;19.73;100.00
65754;BME280;69207;47.502;18.940;2023-08-24T04:16:58;98235.34;;;19.72;100.00
65754;BME280;69207;47.502;18.940;2023-08-24T04:18:01;98232.59;;;19.74;100.00
65754;BME280;69207;47.502;18.940;2023-08-24T04:19:04;98232.66;;;19.76;100.00
65754;BME280;69207;47.502;18.940;2023-08-24T04:20:07;98236.81;;;19.75;100.00
65754;BME280;69207;47.502;18.940;2023-08-24T04:21:10;98226.31;;;19.74;100.00
65754;BME280;69207;47.502;18.940;2023-08-24T04:22:13;98229.09;;;19.74;100.00
65754;BME280;69207;47.502;18.940;2023-08-24T04:23:16;98231.19;;;19.73;100.00
65754;BME280;69207;47.502;18.940;2023-08-24T04:24:20;98235.41;;;19.74;100.00
65754;BME280;69207;47.502;18.940;2023-08-24T04:25:23;98236.81;;;19.75;100.00
65754;BME280;69207;47.502;18.940;2023-08-24T04:26:26;98235.41;;;19.74;100.00
65754;BME280;69207;47.502;18.940;2023-08-24T04:27:29;98236.81;;;19.75;100.00
65754;BME280;69207;47.502;18.940;2023-08-24T04:28:32;98236.81;;;19.75;100.00
65754;BME280;69207;47.502;18.940;2023-08-24T04:29:35;98236.97;;;19.80;100.00
65754;BME280;69207;47.502;18.940;2023-08-24T04:30:38;98233.47;;;19.79;100.00
65754;BME280;69207;47.502;18.940;2023-08-24T04:31:42;98241.13;;;19.78;100.00
65754;BME280;69207;47.502;18.940;2023-08-24T04:32:45;98240.47;;;19.80;100.00
65754;BME280;69207;47.502;18.940;2023-08-24T04:33:48;98241.25;;;19.83;100.00
65754;BME280;69207;47.502;18.940;2023-08-24T04:34:51;98238.47;;;19.83;100.00
65754;BME280;69207;47.502;18.940;2023-08-24T04:35:54;98244.06;;;19.83;100.00
65754;BME280;69207;47.502;18.940;2023-08-24T04:36:57;98242.69;;;19.84;100.00
65754;BME280;69207;47.502;18.940;2023-08-24T04:39:03;98246.84;;;19.83;100.00
65754;BME280;69207;47.502;18.940;2023-08-24T04:40:06;98240.53;;;19.82;100.00
65754;BME280;69207;47.502;18.940;2023-08-24T04:41:14;98245.38;;;19.82;100.00
65754;BME280;69207;47.502;18.940;2023-08-24T04:42:17;98238.47;;;19.83;100.00
65754;BME280;69207;47.502;18.940;2023-08-24T04:43:21;98246.91;;;19.85;100.00
65754;BME280;69207;47.502;18.940;2023-08-24T04:44:24;98245.53;;;19.86;100.00
65754;BME280;69207;47.502;18.940;2023-08-24T04:45:27;98247.66;;;19.87;100.00
65754;BME280;69207;47.502;18.940;2023-08-24T04:46:31;98249.13;;;19.88;100.00
65754;BME280;69207;47.502;18.940;2023-08-24T04:47:34;98252.75;;;19.93;100.00
65754;BME280;69207;47.502;18.940;2023-08-24T04:48:37;98247.91;;;19.93;100.00
65754;BME280;69207;47.502;18.940;2023-08-24T04:49:39;98240.97;;;19.94;100.00
65754;BME280;69207;47.502;18.940;2023-08-24T04:50:44;98254.19;;;19.94;100.00
65754;BME280;69207;47.502;18.940;2023-08-24T04:51:49;98251.31;;;19.92;100.00
65754;BME280;69207;47.502;18.940;2023-08-24T04:52:52;98255.53;;;19.93;100.00
65754;BME280;69207;47.502;18.940;2023-08-24T04:53:55;98251.41;;;19.94;100.00
65754;BME280;69207;47.502;18.940;2023-08-24T04:54:58;98249.31;;;19.94;100.00
65754;BME280;69207;47.502;18.940;2023-08-24T04:56:01;98256.37;;;19.97;100.00
65754;BME280;69207;47.502;18.940;2023-08-24T04:57:05;98263.37;;;19.98;100.00
65754;BME280;69207;47.502;18.940;2023-08-24T04:58:08;98259.97;;;20.00;100.00
65754;BME280;69207;47.502;18.940;2023-08-24T04:59:12;98259.97;;;20.00;100.00
65754;BME280;69207;47.502;18.940;2023-08-24T05:00:15;98259.97;;;20.00;100.00
65754;BME280;69207;47.502;18.940;2023-08-24T05:01:19;98261.34;;;19.99;100.00
65754;BME280;69207;47.502;18.940;2023-08-24T05:02:22;98265.56;;;20.00;100.00
65754;BME280;69207;47.502;18.940;2023-08-24T05:03:25;98261.41;;;20.01;100.00
65754;BME280;69207;47.502;18.940;2023-08-24T05:04:28;98268.41;;;20.02;100.00
65754;BME280;69207;47.502;18.940;2023-08-24T05:05:32;98265.66;;;20.04;100.00
65754;BME280;69207;47.502;18.940;2023-08-24T05:06:35;98261.59;;;20.07;100.00
65754;BME280;69207;47.502;18.940;2023-08-24T05:07:38;98261.03;;;20.11;100.00
65754;BME280;69207;47.502;18.940;2023-08-24T05:08:41;98263.22;;;20.14;100.00
65754;BME280;69207;47.502;18.940;2023-08-24T05:09:44;98263.94;;;20.15;100.00
65754;BME280;69207;47.502;18.940;2023-08-24T05:10:47;98264.75;;;20.17;100.00
65754;BME280;69207;47.502;18.940;2023-08-24T05:11:50;98266.94;;;20.21;100.00
65754;BME280;69207;47.502;18.940;2023-08-24T05:12:53;98272.66;;;20.25;100.00
65754;BME280;69207;47.502;18.940;2023-08-24T05:13:56;98261.63;;;20.29;100.00
65754;BME280;69207;47.502;18.940;2023-08-24T05:14:59;98270.16;;;20.33;100.00
65754;BME280;69207;47.502;18.940;2023-08-24T05:16:02;98265.91;;;20.32;100.00
65754;BME280;69207;47.502;18.940;2023-08-24T05:17:05;98276.34;;;20.31;100.00
65754;BME280;69207;47.502;18.940;2023-08-24T05:18:09;98272.13;;;20.30;100.00
65754;BME280;69207;47.502;18.940;2023-08-24T05:19:12;98270.78;;;20.31;100.00
65754;BME280;69207;47.502;18.940;2023-08-24T05:20:14;98278.50;;;20.33;100.00
65754;BME280;69207;47.502;18.940;2023-08-24T05:21:18;98276.50;;;20.36;100.00
65754;BME280;69207;47.502;18.940;2023-08-24T05:22:20;98275.78;;;20.35;100.00
65754;BME280;69207;47.502;18.940;2023-08-24T05:23:23;98279.37;;;20.38;100.00
65754;BME280;69207;47.502;18.940;2023-08-24T05:24:27;98275.22;;;20.39;100.00
65754;BME280;69207;47.502;18.940;2023-08-24T05:25:29;98277.34;;;20.40;100.00
65754;BME280;69207;47.502;18.940;2023-08-24T05:26:33;98278.13;;;20.43;100.00
65754;BME280;69207;47.502;18.940;2023-08-24T05:27:36;98269.19;;;20.46;100.00
65754;BME280;69207;47.502;18.940;2023-08-24T05:28:39;98275.62;;;20.51;100.00
65754;BME280;69207;47.502;18.940;2023-08-24T05:29:43;98271.53;;;20.54;100.00
65754;BME280;69207;47.502;18.940;2023-08-24T05:30:46;98270.25;;;20.57;100.00
65754;BME280;69207;47.502;18.940;2023-08-24T05:31:49;98278.75;;;20.61;100.00
65754;BME280;69207;47.502;18.940;2023-08-24T05:32:52;98276.72;;;20.64;100.00
65754;BME280;69207;47.502;18.940;2023-08-24T05:33:55;98274.00;;;20.66;100.00